METAR Data
IDs: Format: Raw Decoded Include TAF

Data at: 1517 UTC 10 Aug 2022

KTVL 101453Z AUTO 00000KT 10SM CLR 16/07 A3027 RMK AO2 SLP190 T01560067 53010
KTVL 101353Z AUTO 00000KT 10SM CLR 09/06 A3026 RMK AO2 SLP192 T00940056
KTVL 101253Z AUTO 00000KT 10SM CLR 10/06 A3024 RMK AO2 SLP184 T01000056
KTVL 101153Z AUTO 00000KT 10SM CLR 10/06 A3023 RMK AO2 SLP181 T01000056 10150 20100 55001
KTVL 101053Z AUTO 00000KT 10SM CLR 10/06 A3023 RMK AO2 SLP178 T01000056
KTVL 100953Z AUTO 00000KT 10SM CLR 11/06 A3024 RMK AO2 SLP178 T01060056
KTVL 100853Z AUTO 00000KT 10SM CLR 12/06 A3024 RMK AO2 SLP176 T01170061 58001
KTVL 100753Z AUTO 00000KT 10SM CLR 12/06 A3024 RMK AO2 SLP177 T01220061 402720094
KTVL 100653Z AUTO 00000KT 10SM CLR 13/06 A3024 RMK AO2 SLP175 T01330061
KTVL 100553Z AUTO 00000KT 10SM CLR 16/06 A3024 RMK AO2 SLP173 T01560061 10250 20150 53010
KTVL 100453Z AUTO 00000KT 10SM CLR 16/07 A3023 RMK AO2 SLP170 T01610067
KTVL 100353Z AUTO VRB04KT 10SM CLR 19/07 A3021 RMK AO2 SLP161 T01890067
KTVL 100253Z AUTO VRB04KT 10SM CLR 21/07 A3020 RMK AO2 SLP170 T02110072 53009
KTVL 100153Z AUTO 21008G15KT 10SM FEW065 23/07 A3019 RMK AO2 SLP166 T02280072
KTVL 100053Z AUTO 20007KT 10SM FEW070 24/08 A3018 RMK AO2 SLP161 T02390078
KTVL 092353Z AUTO 21009G16KT 180V280 10SM FEW075 24/08 A3017 RMK AO2 SLP155 T02440078 10272 20244 56006
KTVL 092253Z AUTO 18010G18KT 10SM BKN080 26/08 A3017 RMK AO2 SLP155 T02560078
KTVL 092153Z AUTO 18011G15KT 10SM FEW065 BKN090 26/08 A3018 RMK AO2 PK WND 17031/2124 LTG DSNT NE SLP157 T02560083
KTVL 092053Z AUTO 18015G24KT 10SM FEW080 OVC100 26/08 A3019 RMK AO2 SLP157 T02610078 58004
KTVL 091953Z AUTO 19010KT 10SM BKN085 BKN100 25/08 A3020 RMK AO2 SLP160 T02500078
KTVL 091853Z AUTO 22007G14KT 190V250 10SM BKN075 BKN090 25/08 A3020 RMK AO2 SLP159 T02500078
KTVL 091753Z AUTO 20008G16KT 170V240 10SM BKN070 24/07 A3020 RMK AO2 SLP159 T02440072 10256 20094 56006
KTVL 091653Z AUTO 19010KT 10SM CLR 24/07 A3021 RMK AO2 SLP158 T02390072
KTVL 091553Z AUTO 19004KT 10SM SCT080 22/08 A3022 RMK AO2 SLP163 T02220078
KTVL 091453Z AUTO 17003KT 10SM BKN075 BKN110 13/08 A3022 RMK AO2 SLP178 T01330083 50002
KTVL 091353Z AUTO 18004KT 10SM BKN075 10/07 A3023 RMK AO2 SLP176 T01000067
KTVL 091253Z AUTO 20003KT 10SM BKN090 10/07 A3022 RMK AO2 SLP171 T01000072
KTVL 091153Z AUTO 19004KT 10SM CLR 11/08 A3022 RMK AO2 SLP167 T01060078 10161 20100 55002
KTVL 091053Z AUTO 19003KT 10SM CLR 11/08 A3022 RMK AO2 SLP166 T01110078
KTVL 090953Z AUTO 00000KT 10SM CLR 12/08 A3022 RMK AO2 SLP167 T01220083
KTVL 090853Z AUTO 00000KT 10SM FEW100 13/08 A3023 RMK AO2 SLP173 T01280083 58004
KTVL 090753Z AUTO 00000KT 10SM CLR 13/09 A3024 RMK AO2 SLP178 T01330089 402830100
KTVL 090653Z AUTO 00000KT 10SM CLR 14/09 A3024 RMK AO2 SLP176 T01440089
KTVL 090553Z AUTO 00000KT 10SM FEW110 16/08 A3024 RMK AO2 SLP173 T01610083 10278 20161 50007
KTVL 090453Z AUTO 00000KT 10SM BKN100 18/09 A3025 RMK AO2 SLP173 T01780089
KTVL 090353Z AUTO 00000KT 10SM FEW100 19/09 A3023 RMK AO2 SLP171 T01890094